Pulau Tioman — 3EYO9 — position and weather

sailwx.info

Track history (hours):
 
Tides and Currents Weather Stations Pressure Air Temp Water Temp Dewpoint Dewpoint Depression Visibility Wind Speed Wind Dir Waves Ship Positions

Pulau Tioman

Last reported at 2018-Feb-17 17:42 UTC. Time now 2018-Feb-19 14:28 UTC.
Position N 33°44' E 130°01'.

Length 120 m; draft 6 m.

Type: Cargo ship. MMSI: 356613000.

Date/timePositionNaut miles runAvg speedWind from/ knotsBaromVisibWave heightAir tempDewpointWater temp
2018-Feb-17 17:42N 33°44' E 130°01'413.8
2018-Feb-17 17:25N 33°46' E 130°05'613.6
2018-Feb-17 17:00N 33°49' E 130°10'713.4
2018-Feb-17 16:30N 33°53' E 130°17'713.3
2018-Feb-17 16:01N 33°56' E 130°24'713.1
2018-Feb-17 15:30N 33°59' E 130°31'713.7
2018-Feb-17 15:01N 34°01' E 130°39'713.5
2018-Feb-17 14:30N 34°03' E 130°47'612.6
2018-Feb-17 14:00N 33°59' E 130°53'4 8.6
2018-Feb-17 13:30N 33°55' E 130°56'611.4
2018-Feb-17 13:00N 33°58' E 131°01'611.9
2018-Feb-17 12:30N 33°55' E 131°07'714.1
2018-Feb-17 12:00N 33°51' E 131°14'714.6
2018-Feb-17 11:30N 33°50' E 131°23'714.6
2018-Feb-17 11:00N 33°48' E 131°31'814.3
2018-Feb-17 10:27N 33°47' E 131°41'713.7
2018-Feb-17 09:56N 33°41' E 131°46'257 9.5
2018-Feb-16 06:57N 34°44' E 136°48'613.8
2018-Feb-16 06:30N 34°50' E 136°46'713.7
2018-Feb-16 06:00N 34°56' E 136°47'611.5
2018-Feb-16 05:30N 35°01' E 136°50'2 2.4
2018-Feb-16 04:50N 35°03' E 136°50'0 0.0
2018-Feb-16 04:26N 35°03' E 136°50'0 0.0
2018-Feb-16 03:56N 35°03' E 136°50'0 0.0
2018-Feb-16 03:26N 35°03' E 136°50'0 0.0
2018-Feb-16 02:56N 35°03' E 136°50'0 0.0
2018-Feb-16 02:20N 35°03' E 136°50'0 0.0
2018-Feb-16 01:50N 35°03' E 136°50'0 0.0
2018-Feb-16 01:26N 35°03' E 136°50'0 0.0
2018-Feb-16 00:56N 35°03' E 136°50'0 0.0
2018-Feb-16 00:26N 35°03' E 136°50'0 0.0
2018-Feb-15 23:56N 35°03' E 136°50'0 0.0
2018-Feb-15 23:20N 35°03' E 136°50'0 0.0
2018-Feb-15 22:56N 35°03' E 136°50'0 0.0
2018-Feb-15 22:26N 35°03' E 136°50'0 0.0
2018-Feb-15 21:56N 35°03' E 136°50'1 1.6
2018-Feb-15 21:30N 35°02' E 136°50'2 5.0
2018-Feb-15 21:00N 34°60' E 136°49'3 5.3
2018-Feb-15 20:30N 34°58' E 136°47'0 0.4
2018-Feb-15 19:57N 34°58' E 136°47'0 0.0
2018-Feb-15 19:27N 34°58' E 136°47'0 0.0
2018-Feb-15 18:51N 34°58' E 136°47'0 0.0
2018-Feb-15 18:27N 34°58' E 136°47'0 0.0
2018-Feb-15 17:57N 34°58' E 136°47'0 0.0
2018-Feb-15 17:27N 34°58' E 136°47'0 0.1
2018-Feb-15 16:51N 34°58' E 136°47'0 0.0
2018-Feb-15 16:27N 34°58' E 136°47'0 0.0
2018-Feb-15 15:57N 34°58' E 136°47'0 0.0
2018-Feb-15 15:27N 34°58' E 136°47'0 0.0
2018-Feb-15 14:57N 34°58' E 136°47'0 0.1
2018-Feb-15 14:21N 34°58' E 136°47'0 0.0
2018-Feb-15 13:57N 34°58' E 136°47'0 0.1
2018-Feb-15 13:30N 34°58' E 136°47'2 4.0
2018-Feb-15 13:00N 34°56' E 136°46'510.1
2018-Feb-15 12:30N 34°51' E 136°46'10610.7
2018-Feb-15 02:36N 34°31' E 138°53'2 9.9
2018-Feb-15 02:24N 34°31' E 138°55'4 8.9
2018-Feb-15 01:54N 34°32' E 139°00'4 8.7
2018-Feb-15 01:27N 34°33' E 139°05'4 8.6
2018-Feb-15 00:56N 34°34' E 139°10'5 8.6
2018-Feb-15 00:21N 34°35' E 139°16'10 8.7
2018-Feb-14 23:15N 34°38' E 139°27'32 0.8
2018-Feb-13 07:40N 35°07' E 139°44'213.3
2018-Feb-13 07:30N 35°09' E 139°45'613.3
2018-Feb-13 07:01N 35°15' E 139°46'713.5
2018-Feb-13 06:31N 35°21' E 139°42'510.2
2018-Feb-13 06:00N 35°26' E 139°42'1 2.2
2018-Feb-13 05:30N 35°27' E 139°41'0 0.0
2018-Feb-13 05:00N 35°27' E 139°41'0 0.0
2018-Feb-13 04:24N 35°27' E 139°41'0 0.0
2018-Feb-13 04:00N 35°27' E 139°41'0 0.0
2018-Feb-13 03:30N 35°27' E 139°41'0 0.0
2018-Feb-13 03:00N 35°27' E 139°41'0 0.0
2018-Feb-13 02:18N 35°27' E 139°41'0 0.0
2018-Feb-13 02:00N 35°27' E 139°41'0 0.0
2018-Feb-13 01:30N 35°27' E 139°41'0 0.0
2018-Feb-13 01:00N 35°27' E 139°41'0 0.0
2018-Feb-13 00:30N 35°27' E 139°41'0 0.0
2018-Feb-13 00:00N 35°27' E 139°41'0 0.0
2018-Feb-12 23:30N 35°27' E 139°41'0 0.0
2018-Feb-12 23:00N 35°27' E 139°41'0 0.0
2018-Feb-12 22:30N 35°27' E 139°41'0 0.0
2018-Feb-12 22:00N 35°27' E 139°41'0 0.0
2018-Feb-12 21:30N 35°27' E 139°41'0 0.0
2018-Feb-12 21:00N 35°27' E 139°41'0 0.0
2018-Feb-12 20:30N 35°27' E 139°41'0 0.0
2018-Feb-12 20:00N 35°27' E 139°41'0 0.0
2018-Feb-12 19:30N 35°27' E 139°41'0 0.0
2018-Feb-12 19:00N 35°27' E 139°41'0 0.0
2018-Feb-12 18:30N 35°27' E 139°41'0 0.0
2018-Feb-12 18:00N 35°27' E 139°41'0 0.0
2018-Feb-12 17:30N 35°27' E 139°41'0 0.0
2018-Feb-12 17:00N 35°27' E 139°41'0 0.0
2018-Feb-12 16:12N 35°27' E 139°41'0 0.0
2018-Feb-12 16:00N 35°27' E 139°41'0 0.0
2018-Feb-12 15:18N 35°27' E 139°41'0 0.0
2018-Feb-12 15:00N 35°27' E 139°41'0 0.0
2018-Feb-12 14:30N 35°27' E 139°41'0 0.0
2018-Feb-12 14:00N 35°27' E 139°41'0 0.0
2018-Feb-12 13:30N 35°27' E 139°41'0 0.0
2018-Feb-12 13:00N 35°27' E 139°41'0 0.0
2018-Feb-12 12:30N 35°27' E 139°41'0 0.0
2018-Feb-12 12:00N 35°27' E 139°41'0 0.0
2018-Feb-12 11:30N 35°27' E 139°41'0 0.0
2018-Feb-12 11:00N 35°27' E 139°41'0 0.0
2018-Feb-12 10:30N 35°27' E 139°41'0 0.0
2018-Feb-12 10:00N 35°27' E 139°41'0 0.0
2018-Feb-12 09:30N 35°27' E 139°41'0 0.0
2018-Feb-12 09:00N 35°27' E 139°41'0 0.0
2018-Feb-12 08:30N 35°27' E 139°41'0 0.0
2018-Feb-12 08:00N 35°27' E 139°41'0 0.0
2018-Feb-12 07:30N 35°27' E 139°41'0 0.0
2018-Feb-12 06:59N 35°27' E 139°41'0 0.0
2018-Feb-12 06:30N 35°27' E 139°41'0 0.0
2018-Feb-12 05:59N 35°27' E 139°41'0 0.0
2018-Feb-12 05:24N 35°27' E 139°41'0 0.0
2018-Feb-12 04:53N 35°27' E 139°41'0 0.0
2018-Feb-12 04:30N 35°27' E 139°41'1 2.5
2018-Feb-12 04:01N 35°26' E 139°42'0 0.1
2018-Feb-12 03:25N 35°26' E 139°42'0 0.8
2018-Feb-12 02:59N 35°26' E 139°42'2 3.9
2018-Feb-12 02:31N 35°24' E 139°44'5 9.8
2018-Feb-12 02:00N 35°19' E 139°43'612.8
2018-Feb-12 01:30N 35°14' E 139°47'813.4
2018-Feb-12 00:57N 35°06' E 139°47'1013.5
2018-Feb-12 00:10N 34°58' E 139°38'3314.8
2018-Feb-11 21:57N 34°37' E 139°08'511.0
2018-Feb-11 21:30N 34°33' E 139°05'3 4.6
2018-Feb-11 20:55N 34°35' E 139°06'914.6
2018-Feb-11 20:19N 34°29' E 138°59'200 7.3
2018-Feb-10 17:04N 33°48' E 135°03'113.5
2018-Feb-10 16:59N 33°49' E 135°02'712.1
2018-Feb-10 16:26N 33°55' E 134°58'512.3
2018-Feb-10 16:01N 34°00' E 134°59'612.7
2018-Feb-10 15:31N 34°07' E 134°58'713.2
2018-Feb-10 15:00N 34°13' E 134°59'713.3
2018-Feb-10 14:30N 34°20' E 134°60'714.2
2018-Feb-10 14:00N 34°27' E 135°02'714.6
2018-Feb-10 13:31N 34°34' E 135°04'713.5
2018-Feb-10 13:01N 34°36' E 134°57'815.6
2018-Feb-10 12:30N 34°33' E 134°48'714.6
2018-Feb-10 12:00N 34°30' E 134°40'814.5
2018-Feb-10 11:29N 34°27' E 134°31'  
Track history (hours):
 
Tides and Currents Weather Stations Pressure Air Temp Water Temp Dewpoint Dewpoint Depression Visibility Wind Speed Wind Dir Waves Ship Positions

Pulau Tioman

Last reported at 2018-Feb-17 17:42 UTC. Time now 2018-Feb-19 14:28 UTC.
Position N 33°44' E 130°01'.

Length 120 m; draft 6 m.

Type: Cargo ship. MMSI: 356613000.

Date/timePositionNaut miles runAvg speedWind from/ knotsBaromVisibWave heightAir tempDewpointWater temp
2018-Feb-17 17:42N 33°44' E 130°01'413.8
2018-Feb-17 17:25N 33°46' E 130°05'613.6
2018-Feb-17 17:00N 33°49' E 130°10'713.4
2018-Feb-17 16:30N 33°53' E 130°17'713.3
2018-Feb-17 16:01N 33°56' E 130°24'713.1
2018-Feb-17 15:30N 33°59' E 130°31'713.7
2018-Feb-17 15:01N 34°01' E 130°39'713.5
2018-Feb-17 14:30N 34°03' E 130°47'612.6
2018-Feb-17 14:00N 33°59' E 130°53'4 8.6
2018-Feb-17 13:30N 33°55' E 130°56'611.4
2018-Feb-17 13:00N 33°58' E 131°01'611.9
2018-Feb-17 12:30N 33°55' E 131°07'714.1
2018-Feb-17 12:00N 33°51' E 131°14'714.6
2018-Feb-17 11:30N 33°50' E 131°23'714.6
2018-Feb-17 11:00N 33°48' E 131°31'814.3
2018-Feb-17 10:27N 33°47' E 131°41'713.7
2018-Feb-17 09:56N 33°41' E 131°46'257 9.5
2018-Feb-16 06:57N 34°44' E 136°48'613.8
2018-Feb-16 06:30N 34°50' E 136°46'713.7
2018-Feb-16 06:00N 34°56' E 136°47'611.5
2018-Feb-16 05:30N 35°01' E 136°50'2 2.4
2018-Feb-16 04:50N 35°03' E 136°50'0 0.0
2018-Feb-16 04:26N 35°03' E 136°50'0 0.0
2018-Feb-16 03:56N 35°03' E 136°50'0 0.0
2018-Feb-16 03:26N 35°03' E 136°50'0 0.0
2018-Feb-16 02:56N 35°03' E 136°50'0 0.0
2018-Feb-16 02:20N 35°03' E 136°50'0 0.0
2018-Feb-16 01:50N 35°03' E 136°50'0 0.0
2018-Feb-16 01:26N 35°03' E 136°50'0 0.0
2018-Feb-16 00:56N 35°03' E 136°50'0 0.0
2018-Feb-16 00:26N 35°03' E 136°50'0 0.0
2018-Feb-15 23:56N 35°03' E 136°50'0 0.0
2018-Feb-15 23:20N 35°03' E 136°50'0 0.0
2018-Feb-15 22:56N 35°03' E 136°50'0 0.0
2018-Feb-15 22:26N 35°03' E 136°50'0 0.0
2018-Feb-15 21:56N 35°03' E 136°50'1 1.6
2018-Feb-15 21:30N 35°02' E 136°50'2 5.0
2018-Feb-15 21:00N 34°60' E 136°49'3 5.3
2018-Feb-15 20:30N 34°58' E 136°47'0 0.4
2018-Feb-15 19:57N 34°58' E 136°47'0 0.0
2018-Feb-15 19:27N 34°58' E 136°47'0 0.0
2018-Feb-15 18:51N 34°58' E 136°47'0 0.0
2018-Feb-15 18:27N 34°58' E 136°47'0 0.0
2018-Feb-15 17:57N 34°58' E 136°47'0 0.0
2018-Feb-15 17:27N 34°58' E 136°47'0 0.1
2018-Feb-15 16:51N 34°58' E 136°47'0 0.0
2018-Feb-15 16:27N 34°58' E 136°47'0 0.0
2018-Feb-15 15:57N 34°58' E 136°47'0 0.0
2018-Feb-15 15:27N 34°58' E 136°47'0 0.0
2018-Feb-15 14:57N 34°58' E 136°47'0 0.1
2018-Feb-15 14:21N 34°58' E 136°47'0 0.0
2018-Feb-15 13:57N 34°58' E 136°47'0 0.1
2018-Feb-15 13:30N 34°58' E 136°47'2 4.0
2018-Feb-15 13:00N 34°56' E 136°46'510.1
2018-Feb-15 12:30N 34°51' E 136°46'10610.7
2018-Feb-15 02:36N 34°31' E 138°53'2 9.9
2018-Feb-15 02:24N 34°31' E 138°55'4 8.9
2018-Feb-15 01:54N 34°32' E 139°00'4 8.7
2018-Feb-15 01:27N 34°33' E 139°05'4 8.6
2018-Feb-15 00:56N 34°34' E 139°10'5 8.6
2018-Feb-15 00:21N 34°35' E 139°16'10 8.7
2018-Feb-14 23:15N 34°38' E 139°27'32 0.8
2018-Feb-13 07:40N 35°07' E 139°44'213.3
2018-Feb-13 07:30N 35°09' E 139°45'613.3
2018-Feb-13 07:01N 35°15' E 139°46'713.5
2018-Feb-13 06:31N 35°21' E 139°42'510.2
2018-Feb-13 06:00N 35°26' E 139°42'1 2.2
2018-Feb-13 05:30N 35°27' E 139°41'0 0.0
2018-Feb-13 05:00N 35°27' E 139°41'0 0.0
2018-Feb-13 04:24N 35°27' E 139°41'0 0.0
2018-Feb-13 04:00N 35°27' E 139°41'0 0.0
2018-Feb-13 03:30N 35°27' E 139°41'0 0.0
2018-Feb-13 03:00N 35°27' E 139°41'0 0.0
2018-Feb-13 02:18N 35°27' E 139°41'0 0.0
2018-Feb-13 02:00N 35°27' E 139°41'0 0.0
2018-Feb-13 01:30N 35°27' E 139°41'0 0.0
2018-Feb-13 01:00N 35°27' E 139°41'0 0.0
2018-Feb-13 00:30N 35°27' E 139°41'0 0.0
2018-Feb-13 00:00N 35°27' E 139°41'0 0.0
2018-Feb-12 23:30N 35°27' E 139°41'0 0.0
2018-Feb-12 23:00N 35°27' E 139°41'0 0.0
2018-Feb-12 22:30N 35°27' E 139°41'0 0.0
2018-Feb-12 22:00N 35°27' E 139°41'0 0.0
2018-Feb-12 21:30N 35°27' E 139°41'0 0.0
2018-Feb-12 21:00N 35°27' E 139°41'0 0.0
2018-Feb-12 20:30N 35°27' E 139°41'0 0.0
2018-Feb-12 20:00N 35°27' E 139°41'0 0.0
2018-Feb-12 19:30N 35°27' E 139°41'0 0.0
2018-Feb-12 19:00N 35°27' E 139°41'0 0.0
2018-Feb-12 18:30N 35°27' E 139°41'0 0.0
2018-Feb-12 18:00N 35°27' E 139°41'0 0.0
2018-Feb-12 17:30N 35°27' E 139°41'0 0.0
2018-Feb-12 17:00N 35°27' E 139°41'0 0.0
2018-Feb-12 16:12N 35°27' E 139°41'0 0.0
2018-Feb-12 16:00N 35°27' E 139°41'0 0.0
2018-Feb-12 15:18N 35°27' E 139°41'0 0.0
2018-Feb-12 15:00N 35°27' E 139°41'0 0.0
2018-Feb-12 14:30N 35°27' E 139°41'0 0.0
2018-Feb-12 14:00N 35°27' E 139°41'0 0.0
2018-Feb-12 13:30N 35°27' E 139°41'0 0.0
2018-Feb-12 13:00N 35°27' E 139°41'0 0.0
2018-Feb-12 12:30N 35°27' E 139°41'0 0.0
2018-Feb-12 12:00N 35°27' E 139°41'0 0.0
2018-Feb-12 11:30N 35°27' E 139°41'0 0.0
2018-Feb-12 11:00N 35°27' E 139°41'0 0.0
2018-Feb-12 10:30N 35°27' E 139°41'0 0.0
2018-Feb-12 10:00N 35°27' E 139°41'0 0.0
2018-Feb-12 09:30N 35°27' E 139°41'0 0.0
2018-Feb-12 09:00N 35°27' E 139°41'0 0.0
2018-Feb-12 08:30N 35°27' E 139°41'0 0.0
2018-Feb-12 08:00N 35°27' E 139°41'0 0.0
2018-Feb-12 07:30N 35°27' E 139°41'0 0.0
2018-Feb-12 06:59N 35°27' E 139°41'0 0.0
2018-Feb-12 06:30N 35°27' E 139°41'0 0.0
2018-Feb-12 05:59N 35°27' E 139°41'0 0.0
2018-Feb-12 05:24N 35°27' E 139°41'0 0.0
2018-Feb-12 04:53N 35°27' E 139°41'0 0.0
2018-Feb-12 04:30N 35°27' E 139°41'1 2.5
2018-Feb-12 04:01N 35°26' E 139°42'0 0.1
2018-Feb-12 03:25N 35°26' E 139°42'0 0.8
2018-Feb-12 02:59N 35°26' E 139°42'2 3.9
2018-Feb-12 02:31N 35°24' E 139°44'5 9.8
2018-Feb-12 02:00N 35°19' E 139°43'612.8
2018-Feb-12 01:30N 35°14' E 139°47'813.4
2018-Feb-12 00:57N 35°06' E 139°47'1013.5
2018-Feb-12 00:10N 34°58' E 139°38'3314.8
2018-Feb-11 21:57N 34°37' E 139°08'511.0
2018-Feb-11 21:30N 34°33' E 139°05'3 4.6
2018-Feb-11 20:55N 34°35' E 139°06'914.6
2018-Feb-11 20:19N 34°29' E 138°59'200 7.3
2018-Feb-10 17:04N 33°48' E 135°03'113.5
2018-Feb-10 16:59N 33°49' E 135°02'712.1
2018-Feb-10 16:26N 33°55' E 134°58'512.3
2018-Feb-10 16:01N 34°00' E 134°59'612.7
2018-Feb-10 15:31N 34°07' E 134°58'713.2
2018-Feb-10 15:00N 34°13' E 134°59'713.3
2018-Feb-10 14:30N 34°20' E 134°60'714.2
2018-Feb-10 14:00N 34°27' E 135°02'714.6
2018-Feb-10 13:31N 34°34' E 135°04'713.5
2018-Feb-10 13:01N 34°36' E 134°57'815.6
2018-Feb-10 12:30N 34°33' E 134°48'714.6
2018-Feb-10 12:00N 34°30' E 134°40'814.5
2018-Feb-10 11:29N 34°27' E 134°31'  

Dump ship's entire track history